Погода Болна 2 недели

Майо-Кеби, Чад

26 ноября-09 декабря
  • 26ноября
    Сегодня
    +17°
    +36°
    Ясно и безоблачно
    ВремяПогодаТемператураВлажностьДавлениеВетер, м/сВероятность осадков
    01:00Ясно и безоблачно+21°C20 %733 мм2.7 м/с0 %
    04:00Ясно и безоблачно+19°C19 %732 мм2.8 м/с0 %
    07:00Ясно и безоблачно+20°C22 %734 мм2.9 м/с0 %
    10:00Ясно и безоблачно+28°C16 %735 мм3.5 м/с0 %
    13:00Ясно и безоблачно+35°C14 %732 мм3.6 м/с0 %
    16:00Ясно и безоблачно+35°C15 %731 мм3.0 м/с0 %
    19:00Ясно и безоблачно+26°C21 %731 мм2.7 м/с0 %
    22:00Ясно и безоблачно+23°C22 %732 мм2.8 м/с0 %
  • 27ноября
    Воскресенье
    +16°
    +36°
    Облачно с прояснениями
    ВремяПогодаТемператураВлажностьДавлениеВетер, м/сВероятность осадков
    01:00Ясно и безоблачно+21°C21 %732 мм2.9 м/с0 %
    04:00Облачно с прояснениями+19°C22 %732 мм2.8 м/с0 %
    07:00Облачно с прояснениями+19°C27 %733 мм2.8 м/с0 %
    10:00Облачно с прояснениями+28°C19 %734 мм3.0 м/с0 %
    13:00Облачно с прояснениями+34°C15 %731 мм2.8 м/с0 %
    16:00Облачно с прояснениями+35°C16 %729 мм2.7 м/с0 %
    19:00Облачно с прояснениями+26°C20 %730 мм2.9 м/с0 %
    22:00Ясно и безоблачно+23°C23 %730 мм3.1 м/с0 %
  • 28ноября
    Понедельник
    +18°
    +36°
    Ясно и безоблачно
    ВремяПогодаТемператураВлажностьДавлениеВетер, м/сВероятность осадков
    01:00Ясно и безоблачно+22°C27 %731 мм2.9 м/с0 %
    04:00Ясно и безоблачно+18°C31 %730 мм2.4 м/с0 %
    07:00Ясно и безоблачно+19°C31 %732 мм2.4 м/с0 %
    10:00Ясно и безоблачно+28°C19 %733 мм3.1 м/с0 %
    13:00Ясно и безоблачно+35°C15 %731 мм3.1 м/с0 %
    16:00Небольшая облачность+35°C16 %730 мм3.5 м/с0 %
    19:00Ясно и безоблачно+26°C19 %730 мм2.9 м/с0 %
    22:00Ясно и безоблачно+23°C22 %731 мм2.8 м/с0 %
  • 29ноября
    Вторник
    +17°
    +35°
    Ясно и безоблачно
    ВремяПогодаТемператураВлажностьДавлениеВетер, м/сВероятность осадков
    01:00Практически безоблачно+21°C24 %731 мм2.8 м/с0 %
    04:00Ясно и безоблачно+19°C26 %731 мм3.2 м/с0 %
    07:00Ясно и безоблачно+19°C30 %732 мм3.1 м/с0 %
    10:00Ясно и безоблачно+28°C23 %733 мм3.4 м/с0 %
    13:00Ясно и безоблачно+34°C16 %731 мм3.4 м/с0 %
    16:00Ясно и безоблачно+34°C17 %730 мм3.7 м/с0 %
    19:00Ясно и безоблачно+26°C20 %731 мм3.3 м/с0 %
    22:00Ясно и безоблачно+23°C22 %732 мм2.9 м/с0 %
  • 30ноября
    Среда
    +17°
    +36°
    Ясно и безоблачно
    ВремяПогодаТемператураВлажностьДавлениеВетер, м/сВероятность осадков
    01:00Ясно и безоблачно+20°C26 %731 мм2.4 м/с0 %
    04:00Ясно и безоблачно+19°C24 %731 мм3.0 м/с0 %
    07:00Ясно и безоблачно+19°C27 %732 мм3.4 м/с0 %
    10:00Ясно и безоблачно+29°C18 %733 мм3.9 м/с0 %
    13:00Ясно и безоблачно+35°C14 %731 мм4.0 м/с0 %
    16:00Ясно и безоблачно+35°C14 %730 мм3.2 м/с0 %
    19:00Ясно и безоблачно+27°C17 %731 мм3.2 м/с0 %
    22:00Ясно и безоблачно+23°C20 %732 мм3.1 м/с0 %
Мы используем cookies
Соглашаюсь